Weather History for Cumberland, WI

Change the Weather History Date:

Tuesday, August 7, 2012

  Actual Average (KRPD) Record (KRPD)
Temperature  
Mean Temperature 68 °F -  
Max Temperature 78 °F 76 °F 93 °F (2001)
Min Temperature 59 °F 55 °F 35 °F (2003)
Cooling Degree Days 4    
Growing Degree Days 18 (Base 50)    
Moisture  
Dew Point 56 °F    
Average Humidity 68    
Maximum Humidity 100    
Minimum Humidity 36    
Precipitation  
Precipitation 0.00 in - - ()
Sea Level Pressure  
Sea Level Pressure 29.99 in    
Wind  
Wind Speed 3 mph (NNW)    
Max Wind Speed 10 mph    
Max Gust Speed 16 mph    
Visibility 10 miles    
Events      
Averages and records for this station are not official NWS values.
T = Trace of Precipitation, MM = Missing Value Source: NWS Daily Summary

Daily Weather History Graph

Daily Weather History Graph

Search for Another Location

Airport:

Trip Planner

Search our weather history database for the weather conditions in past years. The results will help you decide how hot, cold, wet, or windy it might be!

Date:

Astronomy

Aug. 07, 2012 Rise Set
Actual Time 5:59 AM CDT 8:26 PM CDT
Civil Twilight 5:26 AM CDT 9:00 PM CDT
Nautical Twilight 4:44 AM CDT 9:41 PM CDT
Astronomical Twilight 3:57 AM CDT 10:28 PM CDT
Moon 10:44 PM CDT (8/7) 12:09 PM CDT (8/7)
Length of Visible Light 15h 33m
Length of Day
14h 27m
Waning Gibbous, 69% of the Moon is Illuminated
Aug 7
Waning Gibbous
Aug 9
Last Quarter
Aug 17
New
Aug 24
First Quarter
Aug 31
Full

Hourly Weather History & Observations

Time (CDT) Temp. Dew Point Humidity Pressure Visibility Wind Dir Wind Speed Gust Speed Precip Events Conditions
12:15 AM 60.8 °F 59.0 °F 94% 29.95 in 10.0 mi SSW 5.8 mph - N/A   Clear
12:35 AM 60.8 °F 59.0 °F 94% 29.96 in 10.0 mi Calm Calm - N/A   Clear
12:55 AM 59.0 °F 57.2 °F 94% 29.96 in 10.0 mi Calm Calm - N/A   Clear
1:15 AM 60.8 °F 59.0 °F 94% 29.95 in 10.0 mi Calm Calm - N/A   Clear
1:35 AM 60.8 °F 59.0 °F 94% 29.95 in 10.0 mi Calm Calm - N/A   Clear
1:55 AM 59.0 °F 57.2 °F 94% 29.95 in 10.0 mi Calm Calm - N/A   Clear
2:15 AM 60.8 °F 59.0 °F 94% 29.94 in 10.0 mi Calm Calm - N/A   Clear
2:35 AM 60.8 °F 59.0 °F 94% 29.94 in 10.0 mi Calm Calm - N/A   Clear
2:55 AM 59.0 °F 59.0 °F 100% 29.94 in 10.0 mi Calm Calm - N/A   Clear
3:15 AM 60.8 °F 59.0 °F 94% 29.94 in 10.0 mi Calm Calm - N/A   Clear
3:35 AM 60.8 °F 59.0 °F 94% 29.95 in 10.0 mi North 4.6 mph - N/A   Clear
3:55 AM 60.8 °F 59.0 °F 94% 29.95 in 10.0 mi WNW 3.5 mph - N/A   Clear
4:15 AM 60.8 °F 59.0 °F 94% 29.95 in 10.0 mi Calm Calm - N/A   Clear
4:35 AM 60.8 °F 59.0 °F 94% 29.95 in 10.0 mi West 3.5 mph - N/A   Clear
4:55 AM 59.0 °F 57.2 °F 94% 29.95 in 10.0 mi Calm Calm - N/A   Clear
5:15 AM 60.8 °F 59.0 °F 94% 29.96 in 10.0 mi Calm Calm - N/A   Clear
5:35 AM 62.6 °F 60.8 °F 94% 29.96 in 10.0 mi Calm Calm - N/A   Clear
5:55 AM 62.6 °F 60.8 °F 94% 29.96 in 10.0 mi North 3.5 mph - N/A   Clear
6:15 AM 60.8 °F 59.0 °F 94% 29.96 in 10.0 mi North 4.6 mph - N/A   Clear
6:35 AM 62.6 °F 59.0 °F 88% 29.96 in 10.0 mi North 3.5 mph - N/A   Clear
6:55 AM 62.6 °F 60.8 °F 94% 29.97 in 10.0 mi NNW 4.6 mph - N/A   Clear
7:15 AM 64.4 °F 60.8 °F 88% 29.97 in 10.0 mi North 4.6 mph - N/A   Clear
7:35 AM 66.2 °F 60.8 °F 83% 29.98 in 10.0 mi North 5.8 mph - N/A   Clear
7:55 AM 66.2 °F 60.8 °F 83% 29.98 in 10.0 mi North 5.8 mph - N/A   Clear
8:15 AM 68.0 °F 60.8 °F 78% 29.98 in 10.0 mi North 6.9 mph - N/A   Clear
8:35 AM 69.8 °F 59.0 °F 68% 29.99 in 10.0 mi NNW 5.8 mph - N/A   Clear
8:55 AM 69.8 °F 59.0 °F 68% 29.99 in 10.0 mi NNW 5.8 mph - N/A   Clear
9:15 AM 71.6 °F 57.2 °F 60% 29.99 in 10.0 mi NNW 6.9 mph - N/A   Clear
9:35 AM 71.6 °F 57.2 °F 60% 30.00 in 10.0 mi North 5.8 mph - N/A   Clear
9:55 AM 73.4 °F 55.4 °F 53% 30.00 in 10.0 mi North 6.9 mph - N/A   Clear
10:15 AM 73.4 °F 57.2 °F 57% 30.00 in 10.0 mi NNW 8.1 mph - N/A   Clear
10:55 AM 73.4 °F 53.6 °F 50% 30.01 in 10.0 mi NNW 10.4 mph - N/A   Clear
11:15 AM 75.2 °F 53.6 °F 47% 30.02 in 10.0 mi North 9.2 mph - N/A   Clear
11:35 AM 75.2 °F 51.8 °F 44% 30.02 in 10.0 mi NNW 10.4 mph 16.1 mph N/A   Clear
11:55 AM 75.2 °F 51.8 °F 44% 30.02 in 10.0 mi North 6.9 mph - N/A   Clear
12:15 PM 75.2 °F 51.8 °F 44% 30.02 in 10.0 mi North 9.2 mph - N/A   Clear
12:35 PM 75.2 °F 50.0 °F 41% 30.01 in 10.0 mi NNW 4.6 mph 16.1 mph N/A   Clear
12:55 PM 77.0 °F 51.8 °F 41% 30.01 in 10.0 mi North 6.9 mph - N/A   Clear
1:15 PM 77.0 °F 50.0 °F 39% 30.01 in 10.0 mi North 9.2 mph - N/A   Clear
1:35 PM 77.0 °F 50.0 °F 39% 30.01 in 10.0 mi North 4.6 mph - N/A   Clear
1:55 PM 77.0 °F 50.0 °F 39% 30.01 in 10.0 mi NNW 8.1 mph - N/A   Clear
2:15 PM 77.0 °F 50.0 °F 39% 30.01 in 10.0 mi NNW 5.8 mph - N/A   Clear
2:35 PM 78.8 °F 50.0 °F 36% 30.01 in 10.0 mi North 9.2 mph - N/A   Clear
2:55 PM 77.0 °F 50.0 °F 39% 30.01 in 10.0 mi NNW 4.6 mph - N/A   Clear
3:15 PM 78.8 °F 50.0 °F 36% 30.01 in 10.0 mi NNW 8.1 mph - N/A   Clear
3:35 PM 78.8 °F 50.0 °F 36% 30.01 in 10.0 mi North 5.8 mph - N/A   Clear
3:55 PM 78.8 °F 51.8 °F 39% 30.01 in 10.0 mi NNW 8.1 mph - N/A   Clear
4:15 PM 78.8 °F 50.0 °F 36% 30.00 in 10.0 mi North 6.9 mph - N/A   Clear
4:35 PM 78.8 °F 51.8 °F 39% 30.01 in 10.0 mi NNW 6.9 mph - N/A   Clear
4:55 PM 78.8 °F 51.8 °F 39% 30.01 in 10.0 mi NW 5.8 mph - N/A   Clear
5:15 PM 77.0 °F 51.8 °F 41% 30.00 in 10.0 mi NE 4.6 mph - N/A   Clear
5:35 PM 77.0 °F 51.8 °F 41% 30.01 in 10.0 mi NNE 5.8 mph - N/A   Clear
5:55 PM 77.0 °F 53.6 °F 44% 30.01 in 10.0 mi NNW 6.9 mph - N/A   Clear
6:15 PM 75.2 °F 53.6 °F 47% 30.01 in 10.0 mi NNE 4.6 mph - N/A   Clear
6:35 PM 73.4 °F 53.6 °F 50% 30.01 in 10.0 mi North 4.6 mph - N/A   Clear
6:55 PM 73.4 °F 53.6 °F 50% 30.01 in 10.0 mi NNE 3.5 mph - N/A   Clear
7:15 PM 73.4 °F 55.4 °F 53% 30.01 in 10.0 mi Calm Calm - N/A   Clear
7:35 PM 73.4 °F 57.2 °F 57% 30.01 in 10.0 mi Calm Calm - N/A   Clear
7:55 PM 71.6 °F 57.2 °F 60% 30.01 in 10.0 mi Calm Calm - N/A   Clear
8:15 PM 69.8 °F 55.4 °F 60% 30.02 in 10.0 mi North 3.5 mph - N/A   Clear
8:35 PM 68.0 °F 57.2 °F 68% 30.02 in 10.0 mi Calm Calm - N/A   Clear
8:55 PM 64.4 °F 57.2 °F 77% 30.03 in 10.0 mi Calm Calm - N/A   Clear
9:15 PM 64.4 °F 57.2 °F 77% 30.03 in 10.0 mi Calm Calm - N/A   Clear
9:35 PM 62.6 °F 57.2 °F 82% 30.03 in 10.0 mi North 3.5 mph - N/A   Clear
9:55 PM 62.6 °F 57.2 °F 82% 30.02 in 10.0 mi Calm Calm - N/A   Clear
10:15 PM 60.8 °F 57.2 °F 88% 30.02 in 10.0 mi Calm Calm - N/A   Clear
10:35 PM 60.8 °F 55.4 °F 82% 30.03 in 10.0 mi Calm Calm - N/A   Clear
10:55 PM 59.0 °F 55.4 °F 88% 30.02 in 10.0 mi Calm Calm - N/A   Clear
11:35 PM 59.0 °F 55.4 °F 88% 30.03 in 10.0 mi Calm Calm - N/A   Clear
11:55 PM 59.0 °F 55.4 °F 88% 30.03 in 10.0 mi Calm Calm - N/A   Scattered Clouds